createdAt,value
2022-10-22T00:01:54.200Z,98266.59
2022-10-22T00:07:32.582Z,98253.34
2022-10-22T00:10:19.496Z,98256.88
2022-10-22T00:13:06.418Z,98261.91
2022-10-22T00:15:53.251Z,98265.44
2022-10-22T00:18:40.757Z,98260.38
2022-10-22T00:21:29.084Z,98257.88
2022-10-22T00:24:18.060Z,98265.06
2022-10-22T00:27:06.046Z,98270.94
2022-10-22T00:29:52.865Z,98286.84
2022-10-22T00:32:42.211Z,98280.81
2022-10-22T00:35:29.197Z,98280.97
2022-10-22T00:38:16.111Z,98276.59
2022-10-22T00:41:03.035Z,98283.78
2022-10-22T00:44:02.636Z,98293.00
2022-10-22T00:46:49.412Z,98281.44
2022-10-22T00:49:36.428Z,98287.56
2022-10-22T00:52:23.604Z,98278.06
2022-10-22T00:55:11.436Z,98277.38
2022-10-22T00:57:58.857Z,98286.47
2022-10-22T01:00:45.696Z,98292.47
2022-10-22T01:03:32.901Z,98294.66
2022-10-22T01:06:26.685Z,98278.44
2022-10-22T01:09:28.089Z,98276.94
2022-10-22T01:12:51.341Z,98283.47
2022-10-22T01:16:08.880Z,98276.28
2022-10-22T01:19:30.353Z,98255.50
2022-10-22T01:22:34.250Z,98268.19
2022-10-22T01:25:34.184Z,98265.53
2022-10-22T01:28:31.617Z,98269.56
2022-10-22T01:31:22.378Z,98258.56
2022-10-22T01:34:12.041Z,98253.00
2022-10-22T01:37:00.337Z,98255.34
2022-10-22T01:39:48.159Z,98249.31
2022-10-22T01:42:34.953Z,98243.44
2022-10-22T01:45:21.774Z,98231.94
2022-10-22T01:48:32.908Z,98236.59
2022-10-22T01:51:37.975Z,98229.41
2022-10-22T01:54:49.404Z,98227.38
2022-10-22T01:58:03.483Z,98226.69
2022-10-22T02:01:07.487Z,98215.84
2022-10-22T02:04:07.581Z,98207.81
2022-10-22T02:07:01.456Z,98208.47
2022-10-22T02:09:50.444Z,98211.31
2022-10-22T02:12:40.274Z,98209.63
2022-10-22T02:15:31.495Z,98204.81
2022-10-22T02:18:22.297Z,98213.16
2022-10-22T02:21:09.587Z,98222.81
2022-10-22T02:23:56.451Z,98228.31
2022-10-22T02:26:53.372Z,98232.34
2022-10-22T02:29:43.314Z,98246.75
2022-10-22T02:32:38.841Z,98251.44
2022-10-22T02:35:07.292Z,98231.34
2022-10-22T02:37:33.997Z,98239.91
2022-10-22T02:40:03.320Z,98240.06
2022-10-22T02:42:30.037Z,98244.06
2022-10-22T02:44:56.594Z,98248.78
2022-10-22T02:47:23.016Z,98253.13
2022-10-22T02:49:49.612Z,98246.50
2022-10-22T02:52:16.088Z,98257.63
2022-10-22T02:54:42.581Z,98249.06
2022-10-22T02:57:09.202Z,98246.16
2022-10-22T02:59:35.721Z,98256.50
2022-10-22T03:02:04.548Z,98247.72
2022-10-22T03:04:31.173Z,98240.59
2022-10-22T03:06:57.834Z,98244.03
2022-10-22T03:09:24.978Z,98239.22
2022-10-22T03:11:51.910Z,98243.56
2022-10-22T03:14:18.621Z,98251.91
2022-10-22T03:16:45.184Z,98259.47
2022-10-22T03:19:11.740Z,98262.91
2022-10-22T03:21:43.939Z,98240.69
2022-10-22T03:24:21.315Z,98246.56
2022-10-22T03:26:50.401Z,98252.69
2022-10-22T03:29:19.137Z,98248.84
2022-10-22T03:31:47.741Z,98261.41
2022-10-22T03:34:14.636Z,98266.34
2022-10-22T03:36:41.877Z,98266.72
2022-10-22T03:39:09.044Z,98280.94
2022-10-22T03:41:38.002Z,98292.63
2022-10-22T03:44:05.119Z,98291.97
2022-10-22T03:46:31.590Z,98298.69
2022-10-22T03:49:00.197Z,98311.19
2022-10-22T03:51:28.962Z,98325.16
2022-10-22T03:53:55.768Z,98312.88
2022-10-22T03:56:22.389Z,98308.31
2022-10-22T03:58:48.948Z,98315.25
2022-10-22T04:01:15.417Z,98321.00
2022-10-22T04:03:41.912Z,98315.16
2022-10-22T04:06:11.680Z,98326.03
2022-10-22T04:08:45.239Z,98338.78
2022-10-22T04:11:13.468Z,98352.00
2022-10-22T04:13:40.164Z,98361.03
2022-10-22T04:16:14.608Z,98354.47
2022-10-22T04:18:42.269Z,98356.84
2022-10-22T04:21:12.445Z,98357.81
2022-10-22T04:23:38.964Z,98370.84
2022-10-22T04:26:07.532Z,98365.44
2022-10-22T04:28:34.690Z,98351.53
2022-10-22T04:31:01.213Z,98371.84
2022-10-22T04:33:27.684Z,98360.53
2022-10-22T04:35:54.071Z,98361.75
2022-10-22T04:38:20.500Z,98357.88
2022-10-22T04:40:46.945Z,98364.72
2022-10-22T04:43:13.442Z,98370.41
2022-10-22T04:45:42.036Z,98369.78
2022-10-22T04:48:10.931Z,98374.41
2022-10-22T04:50:37.456Z,98382.59
2022-10-22T04:53:11.560Z,98372.16
2022-10-22T04:55:38.008Z,98378.38
2022-10-22T04:58:04.581Z,98379.88
2022-10-22T05:00:31.025Z,98395.91
2022-10-22T05:02:57.456Z,98372.84
2022-10-22T05:05:25.703Z,98375.03
2022-10-22T05:08:06.860Z,98382.22
2022-10-22T05:10:40.987Z,98378.81
2022-10-22T05:13:08.206Z,98367.13
2022-10-22T05:15:34.665Z,98377.88
2022-10-22T05:18:01.853Z,98370.91
2022-10-22T05:20:31.113Z,98383.38
2022-10-22T05:22:57.632Z,98384.91
2022-10-22T05:25:24.081Z,98392.28
2022-10-22T05:27:50.591Z,98392.63
2022-10-22T05:30:17.094Z,98390.56
2022-10-22T05:32:46.246Z,98393.25
2022-10-22T05:35:12.755Z,98398.28
2022-10-22T05:37:40.687Z,98400.41
2022-10-22T05:40:19.319Z,98402.06
2022-10-22T05:42:53.418Z,98396.81
2022-10-22T05:45:20.133Z,98408.00
2022-10-22T05:47:46.615Z,98408.84
2022-10-22T05:50:13.177Z,98412.34
2022-10-22T05:52:39.982Z,98418.69
2022-10-22T05:55:06.950Z,98420.00
2022-10-22T05:57:33.464Z,98401.22
2022-10-22T06:00:02.013Z,98406.72
2022-10-22T06:02:30.976Z,98412.75
2022-10-22T06:04:57.432Z,98421.84
2022-10-22T06:07:23.924Z,98424.44
2022-10-22T06:09:50.493Z,98445.81
2022-10-22T06:12:17.004Z,98443.06
2022-10-22T06:14:43.441Z,98463.56
2022-10-22T06:17:12.177Z,98483.31
2022-10-22T06:19:38.885Z,98470.63
2022-10-22T06:22:05.349Z,98487.59
2022-10-22T06:24:31.909Z,98484.97
2022-10-22T06:26:58.415Z,98490.03
2022-10-22T06:29:29.500Z,98485.59
2022-10-22T06:31:55.957Z,98490.03
2022-10-22T06:34:22.403Z,98494.16
2022-10-22T06:36:48.913Z,98501.34
2022-10-22T06:39:19.692Z,98506.22
2022-10-22T06:41:46.825Z,98503.50
2022-10-22T06:44:18.308Z,98507.00
2022-10-22T06:46:45.208Z,98507.53
2022-10-22T06:49:14.240Z,98508.84
2022-10-22T06:51:41.160Z,98511.28
2022-10-22T06:54:07.641Z,98515.88
2022-10-22T06:56:34.096Z,98509.88
2022-10-22T06:59:00.567Z,98518.94
2022-10-22T07:01:31.204Z,98518.84
2022-10-22T07:04:01.213Z,98519.41
2022-10-22T07:06:29.013Z,98530.16
2022-10-22T07:08:57.350Z,98542.16
2022-10-22T07:11:32.529Z,98544.22
2022-10-22T07:13:59.864Z,98541.41
2022-10-22T07:16:29.654Z,98550.78
2022-10-22T07:19:01.594Z,98550.78
2022-10-22T07:21:28.922Z,98562.19
2022-10-22T07:23:59.758Z,98560.38
2022-10-22T07:26:30.444Z,98564.09
2022-10-22T07:29:00.748Z,98572.41
2022-10-22T07:31:29.798Z,98562.91
2022-10-22T07:33:56.909Z,98577.56
2022-10-22T07:36:23.529Z,98585.28
2022-10-22T07:38:57.113Z,98581.81
2022-10-22T07:41:24.070Z,98586.16
2022-10-22T07:43:52.981Z,98591.72
2022-10-22T07:46:20.091Z,98589.06
2022-10-22T07:48:46.874Z,98580.16
2022-10-22T07:51:13.740Z,98580.63
2022-10-22T07:53:40.255Z,98575.16
2022-10-22T07:56:07.637Z,98587.81
2022-10-22T07:58:36.687Z,98607.69
2022-10-22T08:01:05.685Z,98612.22
2022-10-22T08:03:32.884Z,98614.91
2022-10-22T08:06:02.004Z,98617.25
2022-10-22T08:08:30.778Z,98632.97
2022-10-22T08:11:01.933Z,98640.84
2022-10-22T08:13:30.677Z,98637.25
2022-10-22T08:16:01.485Z,98637.50
2022-10-22T08:18:31.376Z,98662.97
2022-10-22T08:20:57.969Z,98664.88
2022-10-22T08:23:26.209Z,98673.50
2022-10-22T08:25:55.884Z,98689.22
2022-10-22T08:28:22.498Z,98753.38
2022-10-22T08:30:49.465Z,98852.44
2022-10-22T08:33:16.011Z,98915.81
2022-10-22T08:35:49.475Z,99074.69
2022-10-22T08:38:16.205Z,99087.63
2022-10-22T08:43:18.474Z,99211.31
2022-10-22T08:46:25.068Z,99104.53
2022-10-22T08:48:57.117Z,99032.06
2022-10-22T08:51:27.512Z,99085.25
2022-10-22T08:54:35.342Z,98855.38
2022-10-22T09:00:12.173Z,98449.00
2022-10-22T09:03:30.644Z,98207.31
2022-10-22T09:06:18.755Z,98557.03
2022-10-22T09:08:48.683Z,99186.66
2022-10-22T09:11:37.782Z,98768.00
2022-10-22T09:14:05.153Z,98867.41
2022-10-22T09:17:02.190Z,97529.66
2022-10-22T09:19:39.855Z,97441.03
2022-10-22T09:22:38.194Z,97918.09
2022-10-22T09:25:26.269Z,98679.22
2022-10-22T09:27:58.134Z,99278.16
2022-10-22T09:30:28.356Z,99109.44
2022-10-22T09:33:00.769Z,99011.94
2022-10-22T09:35:34.612Z,98976.91
2022-10-22T09:38:08.669Z,99136.75
2022-10-22T09:40:51.776Z,99214.53
2022-10-22T09:43:19.153Z,99094.00
2022-10-22T09:45:47.003Z,99026.31
2022-10-22T09:48:30.491Z,99113.66
2022-10-22T09:51:11.231Z,99221.94
2022-10-22T09:53:42.624Z,98725.84
2022-10-22T09:56:36.703Z,98761.13
2022-10-22T09:59:06.524Z,97742.03
2022-10-22T10:01:35.359Z,97788.88
2022-10-22T10:04:09.779Z,97958.56
2022-10-22T10:06:40.270Z,98261.53
2022-10-22T10:09:19.157Z,98288.88
2022-10-22T10:11:54.204Z,97966.69
2022-10-22T10:14:26.669Z,99352.41
2022-10-22T10:17:04.129Z,99231.59
2022-10-22T10:19:54.170Z,99173.50
2022-10-22T10:22:58.726Z,99151.53
2022-10-22T10:25:53.193Z,99108.81
2022-10-22T10:28:36.645Z,99115.69
2022-10-22T10:31:17.074Z,99102.25
2022-10-22T10:33:58.545Z,99140.00
2022-10-22T10:36:31.053Z,99146.19
2022-10-22T10:38:57.423Z,99201.88
2022-10-22T10:41:39.028Z,99087.44
2022-10-22T10:44:11.483Z,99041.66
2022-10-22T10:46:59.484Z,98978.22
2022-10-22T10:49:31.594Z,98916.94
2022-10-22T10:52:02.155Z,98917.69
2022-10-22T10:54:44.613Z,98934.88
2022-10-22T10:57:24.845Z,98936.34
2022-10-22T10:59:51.341Z,98941.50
2022-10-22T11:02:47.968Z,98916.97
2022-10-22T11:05:20.344Z,98922.34
2022-10-22T11:07:55.933Z,98942.94
2022-10-22T11:10:35.397Z,98938.41
2022-10-22T11:13:43.129Z,98972.03
2022-10-22T11:16:30.557Z,98973.53
2022-10-22T11:19:22.855Z,98968.25
2022-10-22T11:22:09.350Z,98960.47
2022-10-22T11:24:51.949Z,98963.75
2022-10-22T11:27:40.018Z,98961.69
2022-10-22T11:30:18.884Z,98949.63
2022-10-22T11:32:55.058Z,98948.78
2022-10-22T11:35:27.869Z,98951.59
2022-10-22T11:37:56.851Z,98951.31
2022-10-22T11:40:23.361Z,98956.72
2022-10-22T11:42:54.017Z,98959.19
2022-10-22T11:45:23.188Z,98956.03
2022-10-22T11:48:15.690Z,98951.06
2022-10-22T11:51:02.170Z,98951.84
2022-10-22T11:53:37.556Z,98929.16
2022-10-22T11:56:07.005Z,98915.84
2022-10-22T11:58:41.985Z,98920.47
2022-10-22T12:01:08.393Z,98932.03
2022-10-22T12:03:34.816Z,98931.09
2022-10-22T12:06:14.968Z,98922.16
2022-10-22T12:08:54.088Z,98911.56
2022-10-22T12:11:35.708Z,98905.16
2022-10-22T12:14:02.224Z,98913.56
2022-10-22T12:16:55.666Z,98907.75
2022-10-22T12:19:23.252Z,98917.53
2022-10-22T12:21:55.236Z,98915.78
2022-10-22T12:24:24.009Z,98917.41
2022-10-22T12:26:52.429Z,98919.50
2022-10-22T12:29:23.649Z,98925.88
2022-10-22T12:31:50.470Z,98918.53
2022-10-22T12:34:21.577Z,98910.94
2022-10-22T12:36:53.290Z,98912.53
2022-10-22T12:39:22.698Z,98915.34
2022-10-22T12:41:49.286Z,98919.97
2022-10-22T12:44:17.766Z,98919.63
2022-10-22T12:46:48.019Z,98917.81
2022-10-22T12:49:24.886Z,98929.06
2022-10-22T12:51:51.414Z,98948.22
2022-10-22T12:54:27.933Z,98925.97
2022-10-22T12:56:56.248Z,98935.88
2022-10-22T12:59:29.941Z,98937.91
2022-10-22T13:02:01.342Z,98942.66
2022-10-22T13:04:37.502Z,98945.94
2022-10-22T13:07:12.868Z,98938.16
2022-10-22T13:09:56.658Z,98952.72
2022-10-22T13:12:28.704Z,98944.34
2022-10-22T13:14:57.461Z,98933.59
2022-10-22T13:17:41.511Z,98917.53
2022-10-22T13:20:21.957Z,98941.31
2022-10-22T13:22:57.507Z,98928.97
2022-10-22T13:25:26.161Z,98940.53
2022-10-22T13:28:12.534Z,98935.22
2022-10-22T13:30:51.114Z,98956.91
2022-10-22T13:33:39.277Z,98951.09
2022-10-22T13:36:06.174Z,98949.63
2022-10-22T13:38:34.928Z,98928.84
2022-10-22T13:41:03.114Z,98936.72
2022-10-22T13:43:32.015Z,98918.69
2022-10-22T13:46:03.229Z,98922.81
2022-10-22T13:48:30.567Z,98940.31
2022-10-22T13:50:59.556Z,98953.25
2022-10-22T13:53:28.428Z,98971.91
2022-10-22T13:55:55.264Z,98956.09
2022-10-22T13:58:26.642Z,98967.91
2022-10-22T14:00:56.805Z,98981.34
2022-10-22T14:03:28.504Z,98963.63
2022-10-22T14:05:55.155Z,98976.50
2022-10-22T14:08:25.660Z,98978.50
2022-10-22T14:10:56.848Z,98997.88
2022-10-22T14:13:23.633Z,98998.06
2022-10-22T14:15:52.203Z,98997.56
2022-10-22T14:18:31.386Z,98992.84
2022-10-22T14:21:00.660Z,99002.13
2022-10-22T14:23:29.480Z,98992.53
2022-10-22T14:25:56.232Z,98995.22
2022-10-22T14:28:22.693Z,98987.13
2022-10-22T14:30:52.339Z,98995.72
2022-10-22T14:33:28.757Z,99001.69
2022-10-22T14:36:00.769Z,98992.53
2022-10-22T14:38:27.388Z,98974.22
2022-10-22T14:40:54.725Z,98970.34
2022-10-22T14:43:28.438Z,98979.28
2022-10-22T14:45:55.515Z,98984.19
2022-10-22T14:48:21.982Z,98981.63
2022-10-22T14:50:50.977Z,98987.03
2022-10-22T14:53:17.703Z,98965.00
2022-10-22T14:55:47.040Z,98969.50
2022-10-22T14:58:14.028Z,98973.59
2022-10-22T15:00:44.339Z,98969.66
2022-10-22T15:03:11.727Z,98970.88
2022-10-22T15:05:44.230Z,98950.88
2022-10-22T15:08:12.504Z,98941.31
2022-10-22T15:10:39.091Z,98928.03
2022-10-22T15:13:05.960Z,98928.69
2022-10-22T15:15:34.156Z,98932.88
2022-10-22T15:18:05.748Z,98937.91
2022-10-22T15:20:34.580Z,98932.56
2022-10-22T15:23:03.594Z,98936.28
2022-10-22T15:25:32.444Z,98925.53
2022-10-22T15:28:03.367Z,98925.03
2022-10-22T15:30:34.001Z,98930.75
2022-10-22T15:33:01.844Z,98928.41
2022-10-22T15:35:30.760Z,98933.63
2022-10-22T15:37:59.412Z,98925.25
2022-10-22T15:40:25.940Z,98930.97
2022-10-22T15:42:52.348Z,98934.00
2022-10-22T15:45:21.207Z,98928.09
2022-10-22T15:47:48.520Z,98911.28
2022-10-22T15:50:15.710Z,98923.88
2022-10-22T15:52:42.196Z,98927.09
2022-10-22T15:55:10.449Z,98923.56
2022-10-22T15:57:38.287Z,98942.75
2022-10-22T16:00:07.148Z,98938.88
2022-10-22T16:02:39.043Z,98940.91
2022-10-22T16:05:08.404Z,98954.19
2022-10-22T16:07:37.288Z,98958.72
2022-10-22T16:10:04.896Z,98956.38
2022-10-22T16:12:31.335Z,98963.25
2022-10-22T16:15:02.670Z,98953.66
2022-10-22T16:17:31.217Z,98955.69
2022-10-22T16:19:57.665Z,98964.75
2022-10-22T16:22:24.140Z,98970.16
2022-10-22T16:24:50.565Z,98969.97
2022-10-22T16:27:17.085Z,98972.84
2022-10-22T16:29:43.537Z,98967.25
2022-10-22T16:32:10.052Z,98970.31
2022-10-22T16:34:36.472Z,98960.56
2022-10-22T16:37:02.995Z,98966.94
2022-10-22T16:39:29.470Z,98968.75
2022-10-22T16:41:55.934Z,98967.06
2022-10-22T16:44:22.537Z,98966.88
2022-10-22T16:46:48.982Z,98962.16
2022-10-22T16:49:17.824Z,98960.09
2022-10-22T16:51:44.251Z,98959.56
2022-10-22T16:54:12.942Z,98955.19
2022-10-22T16:56:41.739Z,98962.16
2022-10-22T16:59:08.647Z,98963.53
2022-10-22T17:01:40.291Z,98962.19
2022-10-22T17:04:26.126Z,98955.63
2022-10-22T17:07:11.404Z,98955.41
2022-10-22T17:09:58.172Z,98944.97
2022-10-22T17:12:45.949Z,98942.41
2022-10-22T17:15:32.784Z,98944.53
2022-10-22T17:18:19.867Z,98936.63
2022-10-22T17:21:08.558Z,98930.41
2022-10-22T17:23:57.105Z,98921.72
2022-10-22T17:26:47.476Z,98921.28
2022-10-22T17:29:36.690Z,98921.91
2022-10-22T17:32:25.734Z,98925.13
2022-10-22T17:35:15.488Z,98936.41
2022-10-22T17:38:04.693Z,98925.78
2022-10-22T17:40:51.619Z,98938.00
2022-10-22T17:43:38.908Z,98928.72
2022-10-22T17:46:28.475Z,98932.41
2022-10-22T17:49:19.132Z,98936.78
2022-10-22T17:52:05.890Z,98918.84
2022-10-22T17:54:53.194Z,98930.41
2022-10-22T17:57:40.173Z,98927.84
2022-10-22T18:00:29.049Z,98924.69
2022-10-22T18:03:15.825Z,98927.97
2022-10-22T18:06:10.212Z,98921.25
2022-10-22T18:08:57.311Z,98919.28
2022-10-22T18:11:44.902Z,98926.28
2022-10-22T18:14:31.703Z,98935.34
2022-10-22T18:17:20.808Z,98932.69
2022-10-22T18:20:08.270Z,98934.66
2022-10-22T18:22:55.218Z,98932.44
2022-10-22T18:25:41.980Z,98925.00
2022-10-22T18:28:28.772Z,98939.69
2022-10-22T18:31:24.066Z,98938.88
2022-10-22T18:34:11.608Z,98930.41
2022-10-22T18:36:58.385Z,98936.16
2022-10-22T18:39:45.179Z,98928.06
2022-10-22T18:42:33.734Z,98926.38
2022-10-22T18:45:22.588Z,98924.53
2022-10-22T18:48:09.711Z,98920.94
2022-10-22T18:51:03.221Z,98927.38
2022-10-22T18:54:04.528Z,98914.47
2022-10-22T18:57:02.569Z,98903.88
2022-10-22T18:59:49.851Z,98906.94
2022-10-22T19:02:37.503Z,98903.25
2022-10-22T19:05:24.293Z,98904.41
2022-10-22T19:08:12.045Z,98916.78
2022-10-22T19:10:58.832Z,98918.94
2022-10-22T19:13:47.803Z,98925.13
2022-10-22T19:16:35.196Z,98928.34
2022-10-22T19:19:22.518Z,98928.13
2022-10-22T19:22:09.316Z,98918.47
2022-10-22T19:24:56.344Z,98929.56
2022-10-22T19:27:45.412Z,98923.19
2022-10-22T19:30:32.299Z,98927.72
2022-10-22T19:33:21.553Z,98925.66
2022-10-22T19:36:13.630Z,98925.66
2022-10-22T19:39:00.809Z,98925.00
2022-10-22T19:41:47.695Z,98920.09
2022-10-22T19:44:34.508Z,98919.38
2022-10-22T19:47:21.837Z,98913.75
2022-10-22T19:50:08.703Z,98914.72
2022-10-22T19:52:59.527Z,98909.84
2022-10-22T19:55:46.391Z,98917.59
2022-10-22T19:58:33.707Z,98914.66
2022-10-22T20:01:21.488Z,98899.94
2022-10-22T20:04:09.713Z,98910.75
2022-10-22T20:06:56.984Z,98920.75
2022-10-22T20:09:43.793Z,98916.53
2022-10-22T20:12:30.629Z,98910.94
2022-10-22T20:15:18.485Z,98921.78
2022-10-22T20:18:05.328Z,98923.31
2022-10-22T20:20:52.459Z,98917.25
2022-10-22T20:23:39.478Z,98915.44
2022-10-22T20:26:29.472Z,98913.47
2022-10-22T20:29:18.948Z,98922.47
2022-10-22T20:32:08.104Z,98911.28
2022-10-22T20:34:55.724Z,98901.09
2022-10-22T20:37:42.602Z,98913.31
2022-10-22T20:40:32.133Z,98919.66
2022-10-22T20:43:18.950Z,98916.84
2022-10-22T20:46:05.887Z,98914.31
2022-10-22T20:48:55.282Z,98926.03
2022-10-22T20:51:42.378Z,98904.19
2022-10-22T20:54:29.209Z,98903.78
2022-10-22T20:57:16.029Z,98910.84
2022-10-22T21:00:03.515Z,98906.34
2022-10-22T21:02:50.377Z,98900.28
2022-10-22T21:05:37.187Z,98905.06
2022-10-22T21:08:24.012Z,98894.38
2022-10-22T21:11:10.835Z,98900.44
2022-10-22T21:13:57.743Z,98889.75
2022-10-22T21:16:46.898Z,98892.53
2022-10-22T21:19:33.881Z,98892.84
2022-10-22T21:22:20.768Z,98893.84
2022-10-22T21:25:07.971Z,98896.66
2022-10-22T21:27:54.743Z,98892.84
2022-10-22T21:30:45.515Z,98901.34
2022-10-22T21:33:36.206Z,98892.28
2022-10-22T21:36:24.997Z,98893.00
2022-10-22T21:39:13.467Z,98886.41
2022-10-22T21:42:00.247Z,98890.63
2022-10-22T21:44:47.104Z,98885.69
2022-10-22T21:47:33.931Z,98891.03
2022-10-22T21:50:23.016Z,98897.22
2022-10-22T21:53:12.028Z,98887.78
2022-10-22T21:55:58.814Z,98883.16
2022-10-22T21:58:45.904Z,98889.34
2022-10-22T22:01:35.579Z,98893.88
2022-10-22T22:04:22.416Z,98880.63
2022-10-22T22:07:09.165Z,98880.78
2022-10-22T22:09:55.972Z,98890.38
2022-10-22T22:12:42.974Z,98883.75
2022-10-22T22:15:31.515Z,98880.94
2022-10-22T22:18:21.656Z,98882.63
2022-10-22T22:21:11.983Z,98874.31
2022-10-22T22:23:59.261Z,98875.00
2022-10-22T22:26:46.025Z,98869.41
2022-10-22T22:29:35.087Z,98862.38
2022-10-22T22:32:21.859Z,98856.19
2022-10-22T22:35:08.694Z,98860.81
2022-10-22T22:37:55.540Z,98848.88
2022-10-22T22:40:45.466Z,98855.47
2022-10-22T22:43:32.492Z,98853.91
2022-10-22T22:46:21.740Z,98851.13
2022-10-22T22:49:08.944Z,98846.88
2022-10-22T22:51:55.791Z,98849.16
2022-10-22T22:54:42.535Z,98840.03
2022-10-22T22:57:29.303Z,98832.69
2022-10-22T23:00:16.408Z,98834.25
2022-10-22T23:03:03.678Z,98823.13
2022-10-22T23:05:50.462Z,98823.25
2022-10-22T23:08:37.706Z,98813.66
2022-10-22T23:11:26.087Z,98798.41
2022-10-22T23:14:14.907Z,98794.75
2022-10-22T23:17:01.660Z,98802.97
2022-10-22T23:19:48.513Z,98796.66
2022-10-22T23:22:35.265Z,98792.16
2022-10-22T23:25:22.044Z,98783.44
2022-10-22T23:28:08.816Z,98794.56
2022-10-22T23:30:56.397Z,98783.19
2022-10-22T23:33:43.809Z,98792.50
2022-10-22T23:36:30.623Z,98793.88
2022-10-22T23:39:21.270Z,98798.50
2022-10-22T23:42:08.104Z,98800.31
2022-10-22T23:44:57.249Z,98805.78
2022-10-22T23:47:44.312Z,98810.28
2022-10-22T23:50:31.376Z,98822.09
2022-10-22T23:53:18.103Z,98822.63
2022-10-22T23:56:07.012Z,98820.22
2022-10-22T23:58:54.828Z,98826.13
